createdAt,value
2024-02-24T00:25:51.479Z,6.10
2024-02-24T00:38:04.444Z,7.00
2024-02-24T01:19:36.778Z,7.03
2024-02-24T01:25:41.745Z,6.30
2024-02-24T02:42:10.124Z,7.27
2024-02-24T02:54:08.260Z,7.93
2024-02-24T03:05:50.141Z,7.93
2024-02-24T03:17:29.982Z,7.23
2024-02-24T03:34:56.101Z,7.57
2024-02-24T03:58:23.110Z,8.83
2024-02-24T04:34:19.113Z,9.47
2024-02-24T05:33:55.967Z,9.50
2024-02-24T05:50:47.607Z,9.03
2024-02-24T05:55:51.265Z,9.27
2024-02-24T06:00:54.070Z,10.03
2024-02-24T06:05:56.879Z,8.83
2024-02-24T06:10:59.598Z,9.00
2024-02-24T06:16:02.437Z,10.63
2024-02-24T06:21:05.407Z,10.40
2024-02-24T06:26:08.230Z,9.30
2024-02-24T06:31:10.805Z,9.90
2024-02-24T06:36:13.354Z,10.40
2024-02-24T06:41:25.490Z,10.17
2024-02-24T06:46:30.541Z,8.95
2024-02-24T06:51:33.118Z,10.47
2024-02-24T06:56:37.009Z,10.10
2024-02-24T07:01:40.616Z,10.43
2024-02-24T07:06:43.965Z,8.77
2024-02-24T07:11:46.870Z,8.90
2024-02-24T07:16:53.842Z,11.37
2024-02-24T07:27:48.100Z,10.10
2024-02-24T07:32:51.604Z,9.53
2024-02-24T07:37:58.063Z,8.67
2024-02-24T07:43:08.029Z,9.93
2024-02-24T07:48:20.537Z,10.33
2024-02-24T07:53:37.822Z,9.50
2024-02-24T07:58:46.368Z,10.07
2024-02-24T08:03:55.134Z,9.73
2024-02-24T08:09:00.604Z,8.93
2024-02-24T08:14:04.834Z,9.17
2024-02-24T08:19:08.647Z,9.20
2024-02-24T08:24:11.720Z,9.23
2024-02-24T08:29:14.282Z,8.50
2024-02-24T08:34:17.903Z,8.93
2024-02-24T08:39:20.573Z,8.57
2024-02-24T08:44:25.402Z,8.87
2024-02-24T08:49:28.087Z,10.10
2024-02-24T08:54:31.736Z,8.63
2024-02-24T08:59:36.609Z,7.70
2024-02-24T09:04:39.814Z,8.23
2024-02-24T09:09:42.447Z,8.73
2024-02-24T09:14:45.151Z,9.17
2024-02-24T09:19:47.665Z,9.00
2024-02-24T09:24:51.219Z,9.27
2024-02-24T09:29:56.266Z,9.37
2024-02-24T09:35:01.125Z,8.87
2024-02-24T09:40:08.929Z,9.10
2024-02-24T09:45:20.116Z,8.40
2024-02-24T09:50:22.916Z,8.90
2024-02-24T09:55:26.293Z,9.10
2024-02-24T10:00:29.165Z,8.77
2024-02-24T10:05:31.857Z,9.73
2024-02-24T10:10:34.991Z,9.80
2024-02-24T10:15:38.530Z,8.87
2024-02-24T10:20:42.289Z,9.23
2024-02-24T10:25:48.738Z,8.10
2024-02-24T10:30:51.374Z,10.07
2024-02-24T10:35:58.243Z,9.70
2024-02-24T10:41:01.918Z,9.53
2024-02-24T10:46:04.700Z,9.77
2024-02-24T10:51:07.515Z,9.27
2024-02-24T10:56:10.992Z,9.47
2024-02-24T11:01:14.676Z,9.53
2024-02-24T11:06:46.918Z,7.60
2024-02-24T11:11:49.796Z,10.30
2024-02-24T11:16:53.019Z,9.23
2024-02-24T11:22:03.256Z,8.93
2024-02-24T11:27:06.692Z,7.83
2024-02-24T11:32:13.879Z,8.47
2024-02-24T11:37:20.480Z,10.33
2024-02-24T11:42:26.734Z,9.53
2024-02-24T11:47:29.589Z,8.80
2024-02-24T11:52:33.922Z,8.43
2024-02-24T11:57:39.326Z,9.10
2024-02-24T12:02:42.041Z,7.67
2024-02-24T12:07:45.122Z,8.80
2024-02-24T12:12:51.216Z,9.20
2024-02-24T12:17:54.343Z,8.37
2024-02-24T12:23:05.909Z,8.10
2024-02-24T12:28:08.615Z,9.43
2024-02-24T12:33:18.800Z,9.13
2024-02-24T12:38:21.937Z,8.30
2024-02-24T12:43:26.479Z,8.93
2024-02-24T12:48:30.177Z,7.93
2024-02-24T12:53:32.796Z,9.60
2024-02-24T12:58:45.367Z,9.00
2024-02-24T13:03:47.942Z,9.63
2024-02-24T13:08:51.704Z,9.50
2024-02-24T13:13:54.379Z,9.07
2024-02-24T13:18:58.088Z,9.43
2024-02-24T13:24:01.512Z,9.10
2024-02-24T13:29:05.190Z,8.33
2024-02-24T13:34:07.810Z,8.97
2024-02-24T13:39:12.104Z,8.27
2024-02-24T13:44:15.920Z,9.10
2024-02-24T13:49:23.671Z,9.23
2024-02-24T13:54:30.374Z,10.30
2024-02-24T13:59:33.432Z,8.57
2024-02-24T14:04:36.104Z,8.60
2024-02-24T14:09:38.839Z,8.50
2024-02-24T14:14:42.416Z,8.93
2024-02-24T14:19:45.130Z,7.77
2024-02-24T14:24:47.733Z,8.67
2024-02-24T14:29:50.583Z,8.57
2024-02-24T14:34:53.158Z,9.17
2024-02-24T14:39:58.599Z,8.20
2024-02-24T14:45:01.355Z,7.73
2024-02-24T14:50:05.146Z,7.87
2024-02-24T14:55:08.824Z,8.40
2024-02-24T15:00:14.855Z,7.40
2024-02-24T15:05:17.953Z,9.10
2024-02-24T15:10:21.928Z,8.30
2024-02-24T15:15:24.551Z,8.87
2024-02-24T15:20:27.126Z,8.70
2024-02-24T15:25:29.808Z,8.00
2024-02-24T15:30:32.291Z,8.30
2024-02-24T15:35:34.927Z,9.30
2024-02-24T15:40:40.774Z,8.17
2024-02-24T15:45:44.701Z,7.70
2024-02-24T15:50:48.321Z,9.07
2024-02-24T15:55:51.108Z,8.30
2024-02-24T16:00:53.720Z,9.00
2024-02-24T16:05:56.466Z,7.77
2024-02-24T16:10:59.320Z,7.63
2024-02-24T16:16:02.924Z,7.33
2024-02-24T16:21:05.525Z,8.57
2024-02-24T16:26:08.425Z,7.77
2024-02-24T16:31:11.017Z,7.43
2024-02-24T16:36:14.115Z,8.87
2024-02-24T16:41:16.711Z,7.63
2024-02-24T16:46:19.367Z,8.73
2024-02-24T16:51:22.049Z,7.50
2024-02-24T16:56:28.605Z,8.20
2024-02-24T17:01:31.253Z,7.10
2024-02-24T17:06:34.010Z,7.67
2024-02-24T17:11:37.723Z,7.47
2024-02-24T17:16:40.477Z,7.80
2024-02-24T17:21:43.040Z,7.67
2024-02-24T17:26:49.897Z,8.07
2024-02-24T17:31:57.742Z,7.10
2024-02-24T17:37:00.444Z,7.50
2024-02-24T17:42:03.137Z,7.53
2024-02-24T17:47:05.912Z,6.83
2024-02-24T17:52:08.513Z,7.33
2024-02-24T17:57:13.439Z,8.10
2024-02-24T18:02:16.650Z,8.00
2024-02-24T18:07:19.320Z,8.70
2024-02-24T18:12:22.176Z,7.87
2024-02-24T18:17:24.860Z,7.83
2024-02-24T18:22:27.884Z,7.37
2024-02-24T18:27:38.583Z,6.60
2024-02-24T18:32:41.683Z,8.40
2024-02-24T18:37:45.595Z,6.73
2024-02-24T18:42:48.231Z,7.00
2024-02-24T18:47:50.989Z,8.50
2024-02-24T18:52:53.603Z,6.53
2024-02-24T18:57:56.264Z,7.93
2024-02-24T19:02:58.963Z,7.57
2024-02-24T19:08:03.937Z,7.63
2024-02-24T19:13:06.802Z,7.00
2024-02-24T19:18:15.573Z,8.07
2024-02-24T19:23:19.047Z,7.27
2024-02-24T19:28:21.872Z,6.50
2024-02-24T19:33:26.341Z,6.53
2024-02-24T19:38:30.780Z,6.40
2024-02-24T19:43:33.498Z,6.37
2024-02-24T19:48:36.645Z,6.90
2024-02-24T19:53:39.323Z,6.00
2024-02-24T19:58:47.803Z,5.80
2024-02-24T20:03:57.698Z,5.70
2024-02-24T20:09:00.316Z,5.57
2024-02-24T20:14:02.976Z,4.37
2024-02-24T20:19:05.668Z,4.90
2024-02-24T20:24:08.468Z,4.87
2024-02-24T20:29:11.019Z,5.00
2024-02-24T20:34:16.110Z,4.23
2024-02-24T20:39:18.832Z,4.97
2024-02-24T20:44:21.324Z,3.50
2024-02-24T20:49:26.172Z,3.87
2024-02-24T20:54:31.236Z,4.20
2024-02-24T20:59:33.653Z,3.40
2024-02-24T21:04:36.776Z,2.90
2024-02-24T21:09:39.129Z,3.13
2024-02-24T21:14:41.543Z,2.87
2024-02-24T21:19:44.333Z,2.50
2024-02-24T21:24:46.714Z,3.00
2024-02-24T21:29:50.324Z,2.60
2024-02-24T21:34:52.794Z,2.50
2024-02-24T21:39:57.410Z,1.93
2024-02-24T21:45:00.418Z,2.07
2024-02-24T21:50:03.096Z,2.10
2024-02-24T21:55:06.671Z,2.30
2024-02-24T22:00:16.704Z,1.90
2024-02-24T22:05:20.680Z,1.73
2024-02-24T22:10:25.099Z,1.63
2024-02-24T22:15:27.603Z,2.23
2024-02-24T22:20:30.163Z,2.43
2024-02-24T22:25:32.675Z,3.30
2024-02-24T22:30:36.100Z,1.70
2024-02-24T22:35:38.771Z,2.50
2024-02-24T22:40:41.212Z,2.30
2024-02-24T22:45:43.920Z,2.33
2024-02-24T22:50:46.410Z,2.53
2024-02-24T22:55:48.999Z,2.00
2024-02-24T23:00:51.500Z,2.83
2024-02-24T23:05:54.018Z,2.07
2024-02-24T23:10:56.490Z,2.67
2024-02-24T23:15:59.051Z,1.97
2024-02-24T23:21:01.620Z,2.10
2024-02-24T23:26:04.980Z,2.13
2024-02-24T23:31:07.561Z,2.13
2024-02-24T23:36:13.974Z,2.40
2024-02-24T23:41:16.560Z,2.03
2024-02-24T23:46:19.011Z,1.90
2024-02-24T23:51:21.400Z,2.13
2024-02-24T23:56:25.148Z,2.40
